sensor_id;sensor_type;location;lat;lon;timestamp;pressure;altitude;pressure_sealevel;temperature;humidity
19811;BME280;10065;49.632;8.346;2023-03-04T00:02:16;101366.06;;;5.38;57.22
19811;BME280;10065;49.632;8.346;2023-03-04T00:04:44;101361.84;;;5.35;57.21
19811;BME280;10065;49.632;8.346;2023-03-04T00:07:12;101368.13;;;5.33;57.35
19811;BME280;10065;49.632;8.346;2023-03-04T00:09:43;101379.66;;;5.30;57.32
19811;BME280;10065;49.632;8.346;2023-03-04T00:12:11;101367.47;;;5.29;57.56
19811;BME280;10065;49.632;8.346;2023-03-04T00:14:39;101370.94;;;5.29;57.66
19811;BME280;10065;49.632;8.346;2023-03-04T00:17:07;101373.84;;;5.25;57.78
19811;BME280;10065;49.632;8.346;2023-03-04T00:19:36;101374.72;;;5.25;57.84
19811;BME280;10065;49.632;8.346;2023-03-04T00:22:04;101374.88;;;5.22;57.91
19811;BME280;10065;49.632;8.346;2023-03-04T00:24:32;101377.03;;;5.16;57.98
19811;BME280;10065;49.632;8.346;2023-03-04T00:27:00;101373.56;;;5.15;58.24
19811;BME280;10065;49.632;8.346;2023-03-04T00:29:28;101373.81;;;5.11;58.46
19811;BME280;10065;49.632;8.346;2023-03-04T00:31:56;101375.34;;;5.15;58.46
19811;BME280;10065;49.632;8.346;2023-03-04T00:34:23;101367.63;;;5.12;58.34
19811;BME280;10065;49.632;8.346;2023-03-04T00:36:52;101375.34;;;5.15;58.42
19811;BME280;10065;49.632;8.346;2023-03-04T00:39:27;101374.56;;;5.13;58.59
19811;BME280;10065;49.632;8.346;2023-03-04T00:41:54;101368.56;;;5.11;58.21
19811;BME280;10065;49.632;8.346;2023-03-04T00:44:22;101374.19;;;5.05;58.24
19811;BME280;10065;49.632;8.346;2023-03-04T00:46:50;101372.59;;;5.02;58.32
19811;BME280;10065;49.632;8.346;2023-03-04T00:49:18;101375.31;;;5.01;58.22
19811;BME280;10065;49.632;8.346;2023-03-04T00:51:46;101378.03;;;4.99;58.10
19811;BME280;10065;49.632;8.346;2023-03-04T00:54:15;101380.00;;;4.96;58.40
19811;BME280;10065;49.632;8.346;2023-03-04T00:56:42;101380.00;;;4.96;58.46
19811;BME280;10065;49.632;8.346;2023-03-04T00:59:10;101382.06;;;4.90;58.52
19811;BME280;10065;49.632;8.346;2023-03-04T01:01:38;101378.66;;;4.88;58.65
19811;BME280;10065;49.632;8.346;2023-03-04T01:04:06;101379.88;;;4.83;58.81
19811;BME280;10065;49.632;8.346;2023-03-04T01:06:34;101374.63;;;4.83;58.88
19811;BME280;10065;49.632;8.346;2023-03-04T01:09:02;101368.19;;;4.73;59.13
19811;BME280;10065;49.632;8.346;2023-03-04T01:11:31;101370.06;;;4.71;59.23
19811;BME280;10065;49.632;8.346;2023-03-04T01:13:58;101365.34;;;4.62;59.31
19811;BME280;10065;49.632;8.346;2023-03-04T01:16:26;101360.00;;;4.63;59.38
19811;BME280;10065;49.632;8.346;2023-03-04T01:18:54;101365.91;;;4.67;59.16
19811;BME280;10065;49.632;8.346;2023-03-04T01:21:22;101360.78;;;4.65;59.38
19811;BME280;10065;49.632;8.346;2023-03-04T01:23:50;101369.66;;;4.63;59.26
19811;BME280;10065;49.632;8.346;2023-03-04T01:26:17;101374.31;;;4.58;59.76
19811;BME280;10065;49.632;8.346;2023-03-04T01:28:47;101362.56;;;4.49;59.79
19811;BME280;10065;49.632;8.346;2023-03-04T01:31:14;101357.22;;;4.50;59.91
19811;BME280;10065;49.632;8.346;2023-03-04T01:33:42;101355.03;;;4.43;60.08
19811;BME280;10065;49.632;8.346;2023-03-04T01:36:10;101352.56;;;4.40;60.08
19811;BME280;10065;49.632;8.346;2023-03-04T01:38:38;101353.19;;;4.45;60.29
19811;BME280;10065;49.632;8.346;2023-03-04T01:41:06;101355.44;;;4.51;60.03
19811;BME280;10065;49.632;8.346;2023-03-04T01:43:35;101345.53;;;4.56;59.55
19811;BME280;10065;49.632;8.346;2023-03-04T01:46:06;101350.59;;;4.59;59.61
19811;BME280;10065;49.632;8.346;2023-03-04T01:48:36;101343.66;;;4.58;59.42
19811;BME280;10065;49.632;8.346;2023-03-04T01:51:05;101344.16;;;4.49;59.74
19811;BME280;10065;49.632;8.346;2023-03-04T01:53:33;101335.16;;;4.39;59.71
19811;BME280;10065;49.632;8.346;2023-03-04T01:56:12;101334.19;;;4.40;59.80
19811;BME280;10065;49.632;8.346;2023-03-04T01:58:41;101330.16;;;4.34;59.98
19811;BME280;10065;49.632;8.346;2023-03-04T02:01:11;101333.91;;;4.30;60.20
19811;BME280;10065;49.632;8.346;2023-03-04T02:03:39;101333.06;;;4.30;60.50
19811;BME280;10065;49.632;8.346;2023-03-04T02:06:07;101329.31;;;4.34;60.42
19811;BME280;10065;49.632;8.346;2023-03-04T02:08:35;101323.41;;;4.30;60.33
19811;BME280;10065;49.632;8.346;2023-03-04T02:11:03;101324.41;;;4.28;60.73
19811;BME280;10065;49.632;8.346;2023-03-04T02:13:30;101314.06;;;4.25;60.79
19811;BME280;10065;49.632;8.346;2023-03-04T02:15:59;101310.34;;;4.29;60.82
19811;BME280;10065;49.632;8.346;2023-03-04T02:18:28;101308.50;;;4.31;60.53
19811;BME280;10065;49.632;8.346;2023-03-04T02:21:04;101308.66;;;4.28;60.74
19811;BME280;10065;49.632;8.346;2023-03-04T02:23:40;101305.44;;;4.23;60.57
19811;BME280;10065;49.632;8.346;2023-03-04T02:26:14;101308.50;;;4.15;60.94
19811;BME280;10065;49.632;8.346;2023-03-04T02:28:42;101304.69;;;4.21;61.05
19811;BME280;10065;49.632;8.346;2023-03-04T02:31:21;101303.56;;;4.25;60.75
19811;BME280;10065;49.632;8.346;2023-03-04T02:33:50;101302.22;;;4.18;60.89
19811;BME280;10065;49.632;8.346;2023-03-04T02:36:19;101303.25;;;4.15;60.69
19811;BME280;10065;49.632;8.346;2023-03-04T02:38:48;101299.59;;;4.18;60.60
19811;BME280;10065;49.632;8.346;2023-03-04T02:41:21;101300.38;;;4.20;60.37
19811;BME280;10065;49.632;8.346;2023-03-04T02:43:53;101299.34;;;4.22;60.40
19811;BME280;10065;49.632;8.346;2023-03-04T02:46:22;101297.75;;;4.20;60.46
19811;BME280;10065;49.632;8.346;2023-03-04T02:48:50;101294.28;;;4.19;60.63
19811;BME280;10065;49.632;8.346;2023-03-04T02:51:19;101297.75;;;4.20;60.53
19811;BME280;10065;49.632;8.346;2023-03-04T02:53:46;101302.22;;;4.18;60.81
19811;BME280;10065;49.632;8.346;2023-03-04T02:56:14;101289.25;;;4.14;60.90
19811;BME280;10065;49.632;8.346;2023-03-04T02:58:43;101295.44;;;4.13;60.77
19811;BME280;10065;49.632;8.346;2023-03-04T03:01:11;101288.53;;;4.12;60.68
19811;BME280;10065;49.632;8.346;2023-03-04T03:03:38;101295.44;;;4.13;60.98
19811;BME280;10065;49.632;8.346;2023-03-04T03:06:06;101296.41;;;4.12;60.90
19811;BME280;10065;49.632;8.346;2023-03-04T03:08:34;101297.84;;;4.02;61.28
19811;BME280;10065;49.632;8.346;2023-03-04T03:11:02;101292.69;;;4.01;61.14
19811;BME280;10065;49.632;8.346;2023-03-04T03:13:30;101292.59;;;4.02;61.09
19811;BME280;10065;49.632;8.346;2023-03-04T03:15:59;101299.44;;;4.05;61.13
19811;BME280;10065;49.632;8.346;2023-03-04T03:18:27;101296.31;;;3.98;61.19
19811;BME280;10065;49.632;8.346;2023-03-04T03:20:54;101296.31;;;3.98;60.74
19811;BME280;10065;49.632;8.346;2023-03-04T03:23:22;101294.53;;;3.99;60.66
19811;BME280;10065;49.632;8.346;2023-03-04T03:25:50;101293.69;;;3.98;60.66
19811;BME280;10065;49.632;8.346;2023-03-04T03:28:18;101293.38;;;4.04;60.48
19811;BME280;10065;49.632;8.346;2023-03-04T03:30:45;101294.53;;;3.99;60.78
19811;BME280;10065;49.632;8.346;2023-03-04T03:33:15;101288.97;;;3.89;61.02
19811;BME280;10065;49.632;8.346;2023-03-04T03:35:43;101289.72;;;3.91;60.86
19811;BME280;10065;49.632;8.346;2023-03-04T03:38:10;101301.91;;;3.92;60.57
19811;BME280;10065;49.632;8.346;2023-03-04T03:40:38;101297.44;;;3.94;60.25
19811;BME280;10065;49.632;8.346;2023-03-04T03:43:06;101288.78;;;3.92;60.28
19811;BME280;10065;49.632;8.346;2023-03-04T03:45:34;101283.28;;;3.81;60.51
19811;BME280;10065;49.632;8.346;2023-03-04T03:48:02;101294.22;;;3.73;60.77
19811;BME280;10065;49.632;8.346;2023-03-04T03:50:31;101286.19;;;3.76;60.72
19811;BME280;10065;49.632;8.346;2023-03-04T03:52:59;101286.69;;;3.83;60.52
19811;BME280;10065;49.632;8.346;2023-03-04T03:55:27;101292.69;;;3.85;60.59
19811;BME280;10065;49.632;8.346;2023-03-04T03:57:55;101290.94;;;3.86;60.83
19811;BME280;10065;49.632;8.346;2023-03-04T04:00:23;101295.41;;;3.84;60.76
19811;BME280;10065;49.632;8.346;2023-03-04T04:02:51;101290.94;;;3.86;60.81
19811;BME280;10065;49.632;8.346;2023-03-04T04:05:19;101293.63;;;3.84;60.98
19811;BME280;10065;49.632;8.346;2023-03-04T04:07:48;101303.19;;;3.85;61.21
19811;BME280;10065;49.632;8.346;2023-03-04T04:10:19;101288.38;;;3.84;60.82
19811;BME280;10065;49.632;8.346;2023-03-04T04:12:46;101284.06;;;3.83;60.54
19811;BME280;10065;49.632;8.346;2023-03-04T04:15:14;101291.09;;;3.83;60.64
19811;BME280;10065;49.632;8.346;2023-03-04T04:17:42;101283.22;;;3.83;60.68
19811;BME280;10065;49.632;8.346;2023-03-04T04:20:10;101288.72;;;3.78;60.59
19811;BME280;10065;49.632;8.346;2023-03-04T04:22:38;101285.16;;;3.79;60.71
19811;BME280;10065;49.632;8.346;2023-03-04T04:25:08;101283.03;;;3.70;60.68
19811;BME280;10065;49.632;8.346;2023-03-04T04:27:36;101284.81;;;3.69;60.66
19811;BME280;10065;49.632;8.346;2023-03-04T04:30:05;101283.66;;;3.75;60.86
19811;BME280;10065;49.632;8.346;2023-03-04T04:32:32;101283.16;;;3.68;60.90
19811;BME280;10065;49.632;8.346;2023-03-04T04:35:00;101288.28;;;3.70;61.39
19811;BME280;10065;49.632;8.346;2023-03-04T04:37:28;101286.44;;;3.72;61.18
19811;BME280;10065;49.632;8.346;2023-03-04T04:39:56;101287.34;;;3.71;61.05
19811;BME280;10065;49.632;8.346;2023-03-04T04:42:25;101292.28;;;3.77;60.85
19811;BME280;10065;49.632;8.346;2023-03-04T04:44:53;101294.22;;;3.73;61.06
19811;BME280;10065;49.632;8.346;2023-03-04T04:47:22;101293.97;;;3.78;61.19
19811;BME280;10065;49.632;8.346;2023-03-04T04:49:50;101295.97;;;3.89;60.84
19811;BME280;10065;49.632;8.346;2023-03-04T04:52:18;101296.50;;;3.95;61.05
19811;BME280;10065;49.632;8.346;2023-03-04T04:54:45;101292.75;;;3.99;60.84
19811;BME280;10065;49.632;8.346;2023-03-04T04:57:13;101293.38;;;4.04;60.56
19811;BME280;10065;49.632;8.346;2023-03-04T04:59:42;101295.63;;;4.10;60.72
19811;BME280;10065;49.632;8.346;2023-03-04T05:02:10;101289.69;;;4.07;60.80
19811;BME280;10065;49.632;8.346;2023-03-04T05:04:37;101297.50;;;4.08;60.80
19811;BME280;10065;49.632;8.346;2023-03-04T05:07:05;101295.63;;;4.10;60.83
19811;BME280;10065;49.632;8.346;2023-03-04T05:09:33;101299.59;;;4.18;60.50
19811;BME280;10065;49.632;8.346;2023-03-04T05:12:00;101292.31;;;4.07;60.80
19811;BME280;10065;49.632;8.346;2023-03-04T05:14:28;101288.69;;;4.09;60.83
19811;BME280;10065;49.632;8.346;2023-03-04T05:16:57;101290.63;;;4.06;61.04
19811;BME280;10065;49.632;8.346;2023-03-04T05:19:25;101291.88;;;4.14;61.28
19811;BME280;10065;49.632;8.346;2023-03-04T05:21:52;101291.31;;;4.09;61.26
19811;BME280;10065;49.632;8.346;2023-03-04T05:24:20;101292.41;;;4.05;61.87
19811;BME280;10065;49.632;8.346;2023-03-04T05:26:48;101289.06;;;4.03;62.12
19811;BME280;10065;49.632;8.346;2023-03-04T05:29:16;101282.44;;;4.12;61.70
19811;BME280;10065;49.632;8.346;2023-03-04T05:31:43;101288.13;;;4.04;61.95
19811;BME280;10065;49.632;8.346;2023-03-04T05:34:12;101277.78;;;4.01;62.29
19811;BME280;10065;49.632;8.346;2023-03-04T05:36:40;101282.63;;;3.93;62.51
19811;BME280;10065;49.632;8.346;2023-03-04T05:39:09;101280.56;;;3.98;62.20
19811;BME280;10065;49.632;8.346;2023-03-04T05:41:37;101274.31;;;4.01;62.05
19811;BME280;10065;49.632;8.346;2023-03-04T05:44:05;101279.69;;;4.13;61.72
19811;BME280;10065;49.632;8.346;2023-03-04T05:46:33;101278.34;;;4.22;61.44
19811;BME280;10065;49.632;8.346;2023-03-04T05:49:01;101279.69;;;4.29;61.07
19811;BME280;10065;49.632;8.346;2023-03-04T05:51:30;101276.78;;;4.34;61.07
19811;BME280;10065;49.632;8.346;2023-03-04T05:53:57;101282.50;;;4.40;60.93
19811;BME280;10065;49.632;8.346;2023-03-04T05:56:25;101283.19;;;4.44;60.82
19811;BME280;10065;49.632;8.346;2023-03-04T05:58:56;101288.94;;;4.50;60.94
19811;BME280;10065;49.632;8.346;2023-03-04T06:01:24;101286.97;;;4.54;61.07
19811;BME280;10065;49.632;8.346;2023-03-04T06:03:51;101281.34;;;4.60;60.58
19811;BME280;10065;49.632;8.346;2023-03-04T06:06:19;101294.13;;;4.66;60.59
19811;BME280;10065;49.632;8.346;2023-03-04T06:08:48;101289.53;;;4.70;60.57
19811;BME280;10065;49.632;8.346;2023-03-04T06:11:16;101299.81;;;4.74;60.38
19811;BME280;10065;49.632;8.346;2023-03-04T06:13:44;101300.38;;;4.79;60.15
19811;BME280;10065;49.632;8.346;2023-03-04T06:16:11;101305.22;;;4.71;60.22
19811;BME280;10065;49.632;8.346;2023-03-04T06:18:39;101310.00;;;4.65;60.87
19811;BME280;10065;49.632;8.346;2023-03-04T06:21:07;101306.53;;;4.64;60.99
19811;BME280;10065;49.632;8.346;2023-03-04T06:23:34;101311.59;;;4.67;61.13
19811;BME280;10065;49.632;8.346;2023-03-04T06:26:04;101311.25;;;4.73;61.29
19811;BME280;10065;49.632;8.346;2023-03-04T06:28:34;101312.41;;;4.83;60.78
19811;BME280;10065;49.632;8.346;2023-03-04T06:31:02;101321.78;;;4.87;60.71
19811;BME280;10065;49.632;8.346;2023-03-04T06:33:30;101317.06;;;4.92;60.88
19811;BME280;10065;49.632;8.346;2023-03-04T06:35:58;101314.88;;;5.01;60.63
19811;BME280;10065;49.632;8.346;2023-03-04T06:38:26;101318.22;;;5.03;60.65
19811;BME280;10065;49.632;8.346;2023-03-04T06:40:53;101312.97;;;5.03;60.78
19811;BME280;10065;49.632;8.346;2023-03-04T06:43:24;101316.19;;;5.08;60.46
19811;BME280;10065;49.632;8.346;2023-03-04T06:45:52;101323.69;;;5.14;60.41
19811;BME280;10065;49.632;8.346;2023-03-04T06:48:20;101324.06;;;5.22;60.03
19811;BME280;10065;49.632;8.346;2023-03-04T06:50:47;101317.50;;;5.29;60.01
19811;BME280;10065;49.632;8.346;2023-03-04T06:53:15;101326.78;;;5.20;60.39
19811;BME280;10065;49.632;8.346;2023-03-04T06:55:43;101325.94;;;5.20;60.45
19811;BME280;10065;49.632;8.346;2023-03-04T06:58:11;101327.00;;;5.17;60.69
19811;BME280;10065;49.632;8.346;2023-03-04T07:00:40;101336.38;;;5.21;60.84
19811;BME280;10065;49.632;8.346;2023-03-04T07:03:10;101333.75;;;5.21;60.88
19811;BME280;10065;49.632;8.346;2023-03-04T07:05:41;101338.66;;;5.27;60.87
19811;BME280;10065;49.632;8.346;2023-03-04T07:08:09;101335.72;;;5.32;60.96
19811;BME280;10065;49.632;8.346;2023-03-04T07:10:36;101338.25;;;5.34;60.72
19811;BME280;10065;49.632;8.346;2023-03-04T07:13:04;101339.75;;;5.38;60.96
19811;BME280;10065;49.632;8.346;2023-03-04T07:15:32;101347.19;;;5.45;60.68
19811;BME280;10065;49.632;8.346;2023-03-04T07:18:02;101343.44;;;5.49;60.88
19811;BME280;10065;49.632;8.346;2023-03-04T07:20:30;101346.59;;;5.54;60.87
19811;BME280;10065;49.632;8.346;2023-03-04T07:22:58;101351.22;;;5.65;60.71
19811;BME280;10065;49.632;8.346;2023-03-04T07:25:26;101344.06;;;5.67;60.27
19811;BME280;10065;49.632;8.346;2023-03-04T07:27:54;101343.50;;;5.76;60.01
19811;BME280;10065;49.632;8.346;2023-03-04T07:30:21;101343.41;;;5.78;60.20
19811;BME280;10065;49.632;8.346;2023-03-04T07:32:49;101346.13;;;5.76;60.07
19811;BME280;10065;49.632;8.346;2023-03-04T07:35:18;101346.03;;;5.78;60.36
19811;BME280;10065;49.632;8.346;2023-03-04T07:37:46;101355.31;;;5.83;59.82
19811;BME280;10065;49.632;8.346;2023-03-04T07:40:14;101361.00;;;5.91;59.77
19811;BME280;10065;49.632;8.346;2023-03-04T07:42:42;101357.13;;;5.97;59.46
19811;BME280;10065;49.632;8.346;2023-03-04T07:45:10;101358.72;;;5.99;59.35
19811;BME280;10065;49.632;8.346;2023-03-04T07:47:38;101358.13;;;6.09;59.05
19811;BME280;10065;49.632;8.346;2023-03-04T07:50:08;101357.09;;;6.11;58.83
19811;BME280;10065;49.632;8.346;2023-03-04T07:52:38;101362.38;;;6.11;58.65
19811;BME280;10065;49.632;8.346;2023-03-04T07:55:07;101361.25;;;6.15;58.67
19811;BME280;10065;49.632;8.346;2023-03-04T07:57:34;101361.69;;;6.22;58.68
19811;BME280;10065;49.632;8.346;2023-03-04T08:00:05;101365.69;;;6.27;58.58
19811;BME280;10065;49.632;8.346;2023-03-04T08:02:33;101361.94;;;6.31;58.40
19811;BME280;10065;49.632;8.346;2023-03-04T08:05:01;101360.03;;;6.33;58.17
19811;BME280;10065;49.632;8.346;2023-03-04T08:07:29;101373.09;;;6.35;57.94
19811;BME280;10065;49.632;8.346;2023-03-04T08:09:58;101369.25;;;6.40;57.91
19811;BME280;10065;49.632;8.346;2023-03-04T08:12:26;101368.84;;;6.47;58.06
19811;BME280;10065;49.632;8.346;2023-03-04T08:14:55;101367.50;;;6.54;57.43
19811;BME280;10065;49.632;8.346;2023-03-04T08:17:22;101371.41;;;6.61;56.86
19811;BME280;10065;49.632;8.346;2023-03-04T08:19:51;101367.28;;;6.57;57.33
19811;BME280;10065;49.632;8.346;2023-03-04T08:22:19;101364.25;;;6.63;57.36
19811;BME280;10065;49.632;8.346;2023-03-04T08:24:47;101369.09;;;6.69;56.89
19811;BME280;10065;49.632;8.346;2023-03-04T08:27:16;101368.63;;;6.76;56.74
19811;BME280;10065;49.632;8.346;2023-03-04T08:29:44;101367.47;;;6.80;56.27
19811;BME280;10065;49.632;8.346;2023-03-04T08:32:11;101379.50;;;6.85;56.01
19811;BME280;10065;49.632;8.346;2023-03-04T08:34:39;101370.75;;;6.84;56.32
19811;BME280;10065;49.632;8.346;2023-03-04T08:37:07;101377.38;;;6.90;56.14
19811;BME280;10065;49.632;8.346;2023-03-04T08:39:34;101381.81;;;6.89;55.96
19811;BME280;10065;49.632;8.346;2023-03-04T08:42:03;101377.28;;;6.91;56.13
19811;BME280;10065;49.632;8.346;2023-03-04T08:44:32;101380.03;;;6.90;56.45
19811;BME280;10065;49.632;8.346;2023-03-04T08:47:00;101374.47;;;6.94;56.20
19811;BME280;10065;49.632;8.346;2023-03-04T08:49:27;101376.59;;;7.02;55.96
19811;BME280;10065;49.632;8.346;2023-03-04T08:51:55;101371.94;;;7.05;55.75
19811;BME280;10065;49.632;8.346;2023-03-04T08:54:23;101376.25;;;7.06;55.77
19811;BME280;10065;49.632;8.346;2023-03-04T08:56:50;101373.94;;;7.14;55.54
19811;BME280;10065;49.632;8.346;2023-03-04T08:59:18;101372.06;;;7.16;55.57
19811;BME280;10065;49.632;8.346;2023-03-04T09:01:47;101378.91;;;7.19;55.58
19811;BME280;10065;49.632;8.346;2023-03-04T09:04:15;101376.06;;;7.22;55.58
19811;BME280;10065;49.632;8.346;2023-03-04T09:06:43;101375.31;;;7.33;55.14
19811;BME280;10065;49.632;8.346;2023-03-04T09:09:11;101374.28;;;7.35;55.18
19811;BME280;10065;49.632;8.346;2023-03-04T09:11:38;101375.13;;;7.36;54.79
19811;BME280;10065;49.632;8.346;2023-03-04T09:14:06;101371.09;;;7.43;54.77
19811;BME280;10065;49.632;8.346;2023-03-04T09:16:34;101381.47;;;7.46;54.76
19811;BME280;10065;49.632;8.346;2023-03-04T09:19:03;101376.59;;;7.52;54.62
19811;BME280;10065;49.632;8.346;2023-03-04T09:21:30;101377.25;;;7.56;54.44
19811;BME280;10065;49.632;8.346;2023-03-04T09:23:58;101367.41;;;7.58;54.71
19811;BME280;10065;49.632;8.346;2023-03-04T09:26:27;101377.00;;;7.59;54.70
19811;BME280;10065;49.632;8.346;2023-03-04T09:28:57;101372.97;;;7.66;54.77
19811;BME280;10065;49.632;8.346;2023-03-04T09:31:25;101376.38;;;7.68;54.72
19811;BME280;10065;49.632;8.346;2023-03-04T09:33:55;101375.84;;;7.63;54.71
19811;BME280;10065;49.632;8.346;2023-03-04T09:36:24;101370.78;;;7.60;54.79
19811;BME280;10065;49.632;8.346;2023-03-04T09:38:52;101375.13;;;7.61;54.85
19811;BME280;10065;49.632;8.346;2023-03-04T09:41:21;101372.69;;;7.45;55.25
19811;BME280;10065;49.632;8.346;2023-03-04T09:43:51;101379.53;;;7.48;55.62
19811;BME280;10065;49.632;8.346;2023-03-04T09:46:31;101376.78;;;7.49;55.25
19811;BME280;10065;49.632;8.346;2023-03-04T09:49:01;101373.84;;;7.54;55.08
19811;BME280;10065;49.632;8.346;2023-03-04T09:51:44;101379.13;;;7.54;54.89
19811;BME280;10065;49.632;8.346;2023-03-04T09:54:19;101379.13;;;7.54;54.87
19811;BME280;10065;49.632;8.346;2023-03-04T09:56:50;101382.94;;;7.63;54.59
19811;BME280;10065;49.632;8.346;2023-03-04T09:59:24;101378.16;;;7.68;54.68
19811;BME280;10065;49.632;8.346;2023-03-04T10:01:58;101381.19;;;7.74;54.39
19811;BME280;10065;49.632;8.346;2023-03-04T10:04:31;101379.34;;;7.64;54.61
19811;BME280;10065;49.632;8.346;2023-03-04T10:07:04;101381.03;;;7.52;54.45
19811;BME280;10065;49.632;8.346;2023-03-04T10:09:43;101376.91;;;7.48;54.63
19811;BME280;10065;49.632;8.346;2023-03-04T10:12:14;101381.13;;;7.50;54.84
19811;BME280;10065;49.632;8.346;2023-03-04T10:14:47;101389.47;;;7.57;55.15
19811;BME280;10065;49.632;8.346;2023-03-04T10:17:20;101380.59;;;7.71;54.59
19811;BME280;10065;49.632;8.346;2023-03-04T10:19:54;101382.91;;;7.75;54.48
19811;BME280;10065;49.632;8.346;2023-03-04T10:22:32;101386.91;;;7.81;53.90
19811;BME280;10065;49.632;8.346;2023-03-04T10:25:14;101386.81;;;7.82;54.06
19811;BME280;10065;49.632;8.346;2023-03-04T10:27:49;101381.19;;;7.74;54.05
19811;BME280;10065;49.632;8.346;2023-03-04T10:30:29;101375.72;;;7.77;53.89
19811;BME280;10065;49.632;8.346;2023-03-04T10:32:58;101381.19;;;7.87;53.97
19811;BME280;10065;49.632;8.346;2023-03-04T10:35:33;101360.25;;;7.97;53.48
19811;BME280;10065;49.632;8.346;2023-03-04T10:38:05;101378.19;;;8.04;53.33
19811;BME280;10065;49.632;8.346;2023-03-04T10:40:38;101370.47;;;8.01;53.14
19811;BME280;10065;49.632;8.346;2023-03-04T10:43:13;101370.47;;;8.01;53.05
19811;BME280;10065;49.632;8.346;2023-03-04T10:45:41;101371.84;;;8.07;53.10
19811;BME280;10065;49.632;8.346;2023-03-04T10:48:18;101368.78;;;8.13;53.03
19811;BME280;10065;49.632;8.346;2023-03-04T10:50:47;101363.28;;;8.16;52.74
19811;BME280;10065;49.632;8.346;2023-03-04T10:53:26;101366.19;;;8.24;52.67
19811;BME280;10065;49.632;8.346;2023-03-04T10:55:55;101360.56;;;8.28;52.35
19811;BME280;10065;49.632;8.346;2023-03-04T10:58:22;101359.19;;;8.36;51.89
19811;BME280;10065;49.632;8.346;2023-03-04T11:01:00;101358.03;;;8.40;52.14
19811;BME280;10065;49.632;8.346;2023-03-04T11:03:31;101351.88;;;8.39;51.81
19811;BME280;10065;49.632;8.346;2023-03-04T11:06:05;101346.41;;;8.42;51.62
19811;BME280;10065;49.632;8.346;2023-03-04T11:08:34;101340.84;;;8.45;51.49
19811;BME280;10065;49.632;8.346;2023-03-04T11:11:02;101339.06;;;8.46;51.56
19811;BME280;10065;49.632;8.346;2023-03-04T11:13:30;101337.72;;;8.40;51.58
19811;BME280;10065;49.632;8.346;2023-03-04T11:16:00;101332.44;;;8.40;51.42
19811;BME280;10065;49.632;8.346;2023-03-04T11:18:34;101336.31;;;8.47;51.20
19811;BME280;10065;49.632;8.346;2023-03-04T11:21:13;101333.78;;;8.46;51.09
19811;BME280;10065;49.632;8.346;2023-03-04T11:23:46;101331.75;;;8.49;50.98
19811;BME280;10065;49.632;8.346;2023-03-04T11:26:18;101335.72;;;8.55;51.00
19811;BME280;10065;49.632;8.346;2023-03-04T11:28:51;101332.97;;;8.56;51.07
19811;BME280;10065;49.632;8.346;2023-03-04T11:31:22;101320.97;;;8.52;51.47
19811;BME280;10065;49.632;8.346;2023-03-04T11:33:57;101324.31;;;8.54;51.45
19811;BME280;10065;49.632;8.346;2023-03-04T11:36:32;101324.09;;;8.57;51.16
19811;BME280;10065;49.632;8.346;2023-03-04T11:39:12;101318.19;;;8.54;51.48
19811;BME280;10065;49.632;8.346;2023-03-04T11:41:45;101324.31;;;8.54;51.07
19811;BME280;10065;49.632;8.346;2023-03-04T11:44:16;101314.44;;;8.45;51.79
19811;BME280;10065;49.632;8.346;2023-03-04T11:50:02;101309.03;;;8.23;52.31
19811;BME280;10065;49.632;8.346;2023-03-04T11:52:47;101312.84;;;8.19;52.76
19811;BME280;10065;49.632;8.346;2023-03-04T11:55:28;101302.91;;;8.22;52.42
19811;BME280;10065;49.632;8.346;2023-03-04T11:58:11;101304.97;;;8.30;51.79
19811;BME280;10065;49.632;8.346;2023-03-04T12:00:46;101305.28;;;8.38;51.40
19811;BME280;10065;49.632;8.346;2023-03-04T12:03:30;101300.09;;;8.37;51.30
19811;BME280;10065;49.632;8.346;2023-03-04T12:06:06;101305.16;;;8.40;51.18
19811;BME280;10065;49.632;8.346;2023-03-04T12:11:43;101299.88;;;8.40;51.09
19811;BME280;10065;49.632;8.346;2023-03-04T12:14:27;101299.03;;;8.39;51.13
19811;BME280;10065;49.632;8.346;2023-03-04T12:17:08;101286.28;;;8.33;51.24
19811;BME280;10065;49.632;8.346;2023-03-04T12:19:52;101288.94;;;8.33;51.46
19811;BME280;10065;49.632;8.346;2023-03-04T12:22:29;101286.78;;;8.38;51.53
19811;BME280;10065;49.632;8.346;2023-03-04T12:25:28;101288.72;;;8.47;51.35
19811;BME280;10065;49.632;8.346;2023-03-04T12:28:24;101286.09;;;8.47;51.19
19811;BME280;10065;49.632;8.346;2023-03-04T12:34:26;101272.88;;;8.23;51.34
19811;BME280;10065;49.632;8.346;2023-03-04T12:40:07;101272.03;;;8.23;51.49
19811;BME280;10065;49.632;8.346;2023-03-04T12:42:47;101269.38;;;8.23;51.78
19811;BME280;10065;49.632;8.346;2023-03-04T12:45:22;101265.69;;;8.25;51.63
19811;BME280;10065;49.632;8.346;2023-03-04T12:48:00;101269.69;;;8.31;51.57
19811;BME280;10065;49.632;8.346;2023-03-04T12:50:38;101268.75;;;8.32;51.41
19811;BME280;10065;49.632;8.346;2023-03-04T12:53:16;101267.78;;;8.33;51.40
19811;BME280;10065;49.632;8.346;2023-03-04T12:55:48;101262.03;;;8.39;51.36
19811;BME280;10065;49.632;8.346;2023-03-04T12:58:19;101256.28;;;8.45;51.15
19811;BME280;10065;49.632;8.346;2023-03-04T13:00:57;101264.09;;;8.47;51.18
19811;BME280;10065;49.632;8.346;2023-03-04T13:03:37;101260.50;;;8.48;51.12
19811;BME280;10065;49.632;8.346;2023-03-04T13:06:13;101257.25;;;8.44;51.31
19811;BME280;10065;49.632;8.346;2023-03-04T13:08:52;101259.44;;;8.50;51.23
19811;BME280;10065;49.632;8.346;2023-03-04T13:11:49;101252.94;;;8.54;51.30
19811;BME280;10065;49.632;8.346;2023-03-04T13:14:27;101249.78;;;8.38;51.69
19811;BME280;10065;49.632;8.346;2023-03-04T13:16:57;101254.22;;;8.38;51.67
19811;BME280;10065;49.632;8.346;2023-03-04T13:19:48;101246.66;;;8.33;51.54
19811;BME280;10065;49.632;8.346;2023-03-04T13:22:27;101244.00;;;8.33;51.65
19811;BME280;10065;49.632;8.346;2023-03-04T13:24:56;101242.69;;;8.39;51.61
19811;BME280;10065;49.632;8.346;2023-03-04T13:27:43;101241.16;;;8.47;51.56
19811;BME280;10065;49.632;8.346;2023-03-04T13:30:39;101238.28;;;8.50;51.54